createdAt,value
2023-02-24T00:01:42.551Z,22.53
2023-02-24T00:07:13.958Z,30.68
2023-02-24T00:09:44.657Z,25.68
2023-02-24T00:12:14.338Z,25.23
2023-02-24T00:14:44.671Z,25.27
2023-02-24T00:17:16.331Z,24.93
2023-02-24T00:19:44.593Z,25.11
2023-02-24T00:22:12.972Z,24.57
2023-02-24T00:24:42.340Z,24.74
2023-02-24T00:27:12.653Z,24.87
2023-02-24T00:29:42.359Z,25.06
2023-02-24T00:32:14.917Z,25.25
2023-02-24T00:34:44.719Z,25.08
2023-02-24T00:37:15.540Z,24.59
2023-02-24T00:39:48.079Z,24.64
2023-02-24T00:42:16.368Z,24.70
2023-02-24T00:44:45.495Z,24.64
2023-02-24T00:47:16.913Z,25.34
2023-02-24T00:49:46.060Z,25.37
2023-02-24T00:52:16.472Z,25.06
2023-02-24T00:54:45.970Z,24.75
2023-02-24T00:57:14.634Z,25.32
2023-02-24T00:59:47.656Z,25.27
2023-02-24T01:02:16.680Z,25.50
2023-02-24T01:04:46.132Z,25.44
2023-02-24T01:07:15.137Z,25.56
2023-02-24T01:09:44.365Z,25.02
2023-02-24T01:12:38.609Z,24.76
2023-02-24T01:15:09.261Z,25.04
2023-02-24T01:17:38.025Z,24.99
2023-02-24T01:20:18.371Z,25.45
2023-02-24T01:22:50.868Z,25.46
2023-02-24T01:25:20.635Z,25.57
2023-02-24T01:27:49.485Z,25.42
2023-02-24T01:30:18.661Z,25.65
2023-02-24T01:32:47.590Z,25.98
2023-02-24T01:35:16.220Z,25.57
2023-02-24T01:37:45.710Z,25.32
2023-02-24T01:40:18.755Z,24.92
2023-02-24T01:42:49.558Z,24.85
2023-02-24T01:45:23.009Z,24.67
2023-02-24T01:47:53.162Z,24.93
2023-02-24T01:50:22.102Z,24.79
2023-02-24T01:52:52.056Z,24.99
2023-02-24T01:55:23.383Z,25.18
2023-02-24T01:57:52.123Z,24.89
2023-02-24T02:00:32.964Z,24.75
2023-02-24T02:03:08.131Z,24.74
2023-02-24T02:05:39.146Z,24.84
2023-02-24T02:08:09.200Z,24.95
2023-02-24T02:10:40.129Z,25.29
2023-02-24T02:13:13.309Z,25.01
2023-02-24T02:15:49.199Z,25.76
2023-02-24T02:18:33.418Z,25.73
2023-02-24T02:21:19.067Z,24.53
2023-02-24T02:23:55.080Z,25.02
2023-02-24T02:26:44.980Z,25.02
2023-02-24T02:29:51.307Z,24.73
2023-02-24T02:32:32.714Z,24.60
2023-02-24T02:35:13.261Z,24.81
2023-02-24T02:37:46.546Z,25.03
2023-02-24T02:40:21.688Z,25.46
2023-02-24T02:43:08.580Z,25.13
2023-02-24T02:45:47.720Z,25.04
2023-02-24T02:48:20.277Z,25.39
2023-02-24T02:50:52.882Z,24.92
2023-02-24T02:53:27.098Z,24.75
2023-02-24T02:56:01.358Z,25.50
2023-02-24T02:58:32.759Z,25.84
2023-02-24T03:01:04.596Z,24.84
2023-02-24T03:03:37.133Z,24.61
2023-02-24T03:06:24.824Z,24.91
2023-02-24T03:09:00.233Z,25.23
2023-02-24T03:11:29.155Z,24.82
2023-02-24T03:14:02.971Z,24.30
2023-02-24T03:16:31.813Z,24.31
2023-02-24T03:19:04.146Z,24.67
2023-02-24T03:21:36.705Z,24.79
2023-02-24T03:24:06.461Z,25.03
2023-02-24T03:26:50.713Z,25.00
2023-02-24T03:29:24.257Z,25.23
2023-02-24T03:32:12.495Z,25.47
2023-02-24T03:34:40.677Z,25.13
2023-02-24T03:37:11.171Z,25.08
2023-02-24T03:39:40.634Z,24.99
2023-02-24T03:42:19.034Z,24.94
2023-02-24T03:44:48.325Z,25.13
2023-02-24T03:47:17.559Z,25.19
2023-02-24T03:49:47.247Z,25.11
2023-02-24T03:52:32.577Z,25.55
2023-02-24T03:55:23.289Z,26.10
2023-02-24T03:57:55.366Z,25.73
2023-02-24T04:00:46.611Z,26.50
2023-02-24T04:03:28.852Z,25.61
2023-02-24T04:06:26.484Z,25.67
2023-02-24T04:09:21.373Z,25.99
2023-02-24T04:12:01.206Z,25.84
2023-02-24T04:14:33.426Z,26.05
2023-02-24T04:17:08.103Z,26.26
2023-02-24T04:19:38.614Z,26.23
2023-02-24T04:22:07.788Z,25.79
2023-02-24T04:24:38.382Z,24.89
2023-02-24T04:27:06.966Z,25.45
2023-02-24T04:29:40.750Z,26.52
2023-02-24T04:32:10.317Z,26.29
2023-02-24T04:34:40.567Z,25.49
2023-02-24T04:37:08.819Z,25.24
2023-02-24T04:39:39.779Z,24.82
2023-02-24T04:42:14.733Z,25.09
2023-02-24T04:44:43.043Z,25.68
2023-02-24T04:47:11.749Z,25.73
2023-02-24T04:49:41.498Z,24.79
2023-02-24T04:52:10.079Z,24.49
2023-02-24T04:54:38.491Z,24.41
2023-02-24T04:57:08.113Z,24.37
2023-02-24T04:59:38.194Z,25.51
2023-02-24T05:02:06.578Z,25.04
2023-02-24T05:04:38.931Z,25.77
2023-02-24T05:07:07.831Z,25.60
2023-02-24T05:09:35.965Z,24.41
2023-02-24T05:12:05.714Z,25.24
2023-02-24T05:14:33.672Z,25.99
2023-02-24T05:17:02.348Z,26.40
2023-02-24T05:19:49.286Z,26.49
2023-02-24T05:22:17.994Z,25.89
2023-02-24T05:24:48.190Z,25.86
2023-02-24T05:27:17.589Z,25.95
2023-02-24T05:29:49.069Z,25.65
2023-02-24T05:32:17.164Z,25.15
2023-02-24T05:34:45.526Z,25.19
2023-02-24T05:37:16.814Z,25.60
2023-02-24T05:39:46.303Z,25.77
2023-02-24T05:42:14.552Z,25.27
2023-02-24T05:44:42.613Z,25.02
2023-02-24T05:47:11.918Z,25.52
2023-02-24T05:49:43.879Z,25.38
2023-02-24T05:52:14.186Z,25.69
2023-02-24T05:54:45.151Z,25.81
2023-02-24T05:57:17.117Z,25.42
2023-02-24T05:59:45.383Z,25.37
2023-02-24T06:02:16.955Z,25.60
2023-02-24T06:04:50.999Z,26.11
2023-02-24T06:07:27.548Z,26.23
2023-02-24T06:09:58.044Z,26.91
2023-02-24T06:12:31.849Z,26.20
2023-02-24T06:15:07.661Z,26.88
2023-02-24T06:17:39.664Z,26.53
2023-02-24T06:20:16.129Z,26.83
2023-02-24T06:22:44.596Z,26.94
2023-02-24T06:25:15.881Z,26.76
2023-02-24T06:27:44.235Z,26.67
2023-02-24T06:30:15.330Z,26.45
2023-02-24T06:32:45.030Z,27.23
2023-02-24T06:35:14.928Z,27.38
2023-02-24T06:37:43.877Z,26.41
2023-02-24T06:40:16.116Z,26.82
2023-02-24T06:42:48.228Z,26.35
2023-02-24T06:45:16.488Z,25.69
2023-02-24T06:47:48.976Z,25.44
2023-02-24T06:50:21.937Z,26.05
2023-02-24T06:52:53.313Z,25.72
2023-02-24T06:55:31.001Z,25.75
2023-02-24T06:58:04.356Z,25.68
2023-02-24T07:00:40.035Z,26.44
2023-02-24T07:03:16.247Z,25.84
2023-02-24T07:05:54.516Z,25.22
2023-02-24T07:08:27.446Z,26.95
2023-02-24T07:10:59.977Z,26.15
2023-02-24T07:13:30.021Z,26.34
2023-02-24T07:16:07.229Z,26.15
2023-02-24T07:18:37.204Z,25.83
2023-02-24T07:21:06.334Z,26.09
2023-02-24T07:23:35.020Z,26.11
2023-02-24T07:26:10.308Z,26.47
2023-02-24T07:28:40.338Z,25.77
2023-02-24T07:31:14.022Z,25.88
2023-02-24T07:33:45.195Z,26.68
2023-02-24T07:36:23.354Z,26.63
2023-02-24T07:38:53.214Z,26.73
2023-02-24T07:41:23.037Z,27.25
2023-02-24T07:43:54.551Z,27.33
2023-02-24T07:46:24.737Z,26.84
2023-02-24T07:48:53.783Z,25.77
2023-02-24T07:51:23.742Z,26.38
2023-02-24T07:53:56.808Z,27.36
2023-02-24T07:56:28.557Z,27.13
2023-02-24T07:58:59.993Z,27.39
2023-02-24T08:01:39.058Z,26.88
2023-02-24T08:04:08.213Z,26.38
2023-02-24T08:06:38.238Z,25.69
2023-02-24T08:09:18.654Z,25.60
2023-02-24T08:11:49.249Z,26.89
2023-02-24T08:14:17.722Z,27.21
2023-02-24T08:16:48.222Z,27.01
2023-02-24T08:19:21.190Z,26.49
2023-02-24T08:21:52.182Z,26.87
2023-02-24T08:24:25.341Z,26.66
2023-02-24T08:27:04.502Z,26.47
2023-02-24T08:29:40.435Z,27.01
2023-02-24T08:32:10.329Z,26.86
2023-02-24T08:34:38.866Z,26.25
2023-02-24T08:37:06.993Z,25.65
2023-02-24T08:39:36.562Z,26.02
2023-02-24T08:42:07.666Z,26.54
2023-02-24T08:44:37.245Z,26.14
2023-02-24T08:47:07.617Z,26.87
2023-02-24T08:49:40.691Z,26.92
2023-02-24T08:52:08.872Z,26.35
2023-02-24T08:54:48.205Z,26.48
2023-02-24T08:57:18.391Z,25.38
2023-02-24T08:59:57.850Z,25.39
2023-02-24T09:02:29.603Z,26.15
2023-02-24T09:05:03.730Z,25.99
2023-02-24T09:07:35.645Z,26.14
2023-02-24T09:10:18.263Z,27.33
2023-02-24T09:12:49.436Z,26.86
2023-02-24T09:15:18.025Z,26.40
2023-02-24T09:17:47.448Z,25.58
2023-02-24T09:20:27.145Z,26.00
2023-02-24T09:23:03.697Z,25.95
2023-02-24T09:25:49.801Z,26.15
2023-02-24T09:28:24.970Z,25.65
2023-02-24T09:30:55.692Z,26.07
2023-02-24T09:33:39.853Z,25.91
2023-02-24T09:36:20.231Z,26.42
2023-02-24T09:39:02.194Z,25.96
2023-02-24T09:42:18.124Z,25.23
2023-02-24T09:44:52.947Z,26.27
2023-02-24T09:47:52.174Z,27.03
2023-02-24T09:50:40.701Z,26.09
2023-02-24T09:53:17.689Z,27.31
2023-02-24T09:56:03.861Z,26.36
2023-02-24T09:58:53.320Z,26.29
2023-02-24T10:01:43.320Z,26.68
2023-02-24T10:04:20.843Z,26.59
2023-02-24T10:06:58.292Z,27.46
2023-02-24T10:09:35.796Z,26.62
2023-02-24T10:12:19.031Z,26.11
2023-02-24T10:15:49.286Z,27.34
2023-02-24T10:18:29.256Z,27.52
2023-02-24T10:21:04.402Z,27.09
2023-02-24T10:23:36.583Z,27.17
2023-02-24T10:26:07.678Z,27.32
2023-02-24T10:28:52.003Z,27.24
2023-02-24T10:31:30.797Z,26.89
2023-02-24T10:34:08.271Z,26.80
2023-02-24T10:36:39.771Z,27.03
2023-02-24T10:39:20.592Z,27.25
2023-02-24T10:41:57.637Z,27.15
2023-02-24T10:44:27.360Z,26.93
2023-02-24T10:47:31.181Z,27.45
2023-02-24T10:50:00.880Z,27.22
2023-02-24T10:52:58.340Z,26.87
2023-02-24T10:55:29.127Z,26.90
2023-02-24T10:58:16.047Z,27.22
2023-02-24T11:01:06.714Z,27.16
2023-02-24T11:03:46.354Z,26.84
2023-02-24T11:06:40.825Z,26.77
2023-02-24T11:09:35.036Z,26.53
2023-02-24T11:12:35.451Z,25.85
2023-02-24T11:15:25.431Z,26.41
2023-02-24T11:17:58.758Z,26.58
2023-02-24T11:20:46.126Z,27.16
2023-02-24T11:23:24.738Z,27.56
2023-02-24T11:26:00.916Z,27.47
2023-02-24T11:28:57.652Z,26.67
2023-02-24T11:32:11.644Z,25.81
2023-02-24T11:34:49.650Z,27.24
2023-02-24T11:37:31.143Z,26.83
2023-02-24T11:40:16.033Z,26.38
2023-02-24T11:42:57.229Z,26.67
2023-02-24T11:45:29.501Z,26.52
2023-02-24T11:48:01.241Z,27.21
2023-02-24T11:50:39.885Z,27.24
2023-02-24T11:53:16.430Z,26.66
2023-02-24T11:55:47.049Z,26.85
2023-02-24T11:58:23.033Z,27.03
2023-02-24T12:01:16.452Z,27.39
2023-02-24T12:03:51.450Z,27.81
2023-02-24T12:06:39.731Z,27.43
2023-02-24T12:09:14.298Z,27.59
2023-02-24T12:11:57.122Z,27.61
2023-02-24T12:14:32.794Z,27.20
2023-02-24T12:17:21.751Z,26.86
2023-02-24T12:20:07.123Z,26.52
2023-02-24T12:24:31.492Z,34.47
2023-02-24T12:27:18.613Z,30.65
2023-02-24T12:29:57.717Z,29.87
2023-02-24T12:32:54.333Z,30.46
2023-02-24T12:35:42.337Z,29.95
2023-02-24T12:38:44.287Z,30.01
2023-02-24T12:41:32.322Z,29.51
2023-02-24T12:44:35.608Z,29.46
2023-02-24T12:47:08.703Z,30.10
2023-02-24T12:50:06.975Z,29.03
2023-02-24T12:52:41.703Z,28.65
2023-02-24T12:55:15.546Z,28.82
2023-02-24T12:58:13.541Z,29.41
2023-02-24T13:01:13.547Z,28.50
2023-02-24T13:03:59.001Z,28.04
2023-02-24T13:06:46.242Z,28.33
2023-02-24T13:09:36.627Z,29.10
2023-02-24T13:12:14.436Z,28.91
2023-02-24T13:14:42.626Z,29.95
2023-02-24T13:17:10.682Z,28.40
2023-02-24T13:19:40.204Z,29.18
2023-02-24T13:22:11.707Z,28.83
2023-02-24T13:24:44.704Z,28.16
2023-02-24T13:27:12.764Z,28.47
2023-02-24T13:29:48.807Z,28.34
2023-02-24T13:32:35.211Z,29.19
2023-02-24T13:35:26.783Z,29.58
2023-02-24T13:37:55.237Z,28.26
2023-02-24T13:40:24.418Z,27.40
2023-02-24T13:43:01.925Z,28.76
2023-02-24T13:45:37.422Z,28.10
2023-02-24T13:48:22.504Z,28.57
2023-02-24T13:51:02.435Z,29.22
2023-02-24T13:53:57.753Z,28.42
2023-02-24T13:56:34.214Z,29.58
2023-02-24T13:59:14.608Z,28.72
2023-02-24T14:02:19.866Z,28.00
2023-02-24T14:04:52.454Z,28.39
2023-02-24T14:07:40.872Z,29.27
2023-02-24T14:10:19.236Z,27.70
2023-02-24T14:12:48.672Z,27.53
2023-02-24T14:15:24.479Z,28.66
2023-02-24T14:18:01.001Z,28.44
2023-02-24T14:20:38.036Z,29.06
2023-02-24T14:23:22.308Z,28.31
2023-02-24T14:25:58.720Z,26.96
2023-02-24T14:28:36.393Z,27.36
2023-02-24T14:31:15.444Z,29.60
2023-02-24T14:33:44.901Z,30.11
2023-02-24T14:36:18.841Z,29.74
2023-02-24T14:39:02.542Z,29.25
2023-02-24T14:41:31.086Z,28.93
2023-02-24T14:44:05.637Z,30.38
2023-02-24T14:46:34.830Z,30.28
2023-02-24T14:49:05.115Z,28.87
2023-02-24T14:51:35.660Z,28.65
2023-02-24T14:54:06.516Z,28.98
2023-02-24T14:56:34.498Z,28.83
2023-02-24T14:59:15.042Z,29.53
2023-02-24T15:01:44.276Z,28.13
2023-02-24T15:04:31.685Z,29.01
2023-02-24T15:07:01.933Z,29.02
2023-02-24T15:09:35.029Z,28.98
2023-02-24T15:12:13.693Z,29.18
2023-02-24T15:14:53.447Z,28.22
2023-02-24T15:17:22.028Z,27.63
2023-02-24T15:19:54.663Z,27.81
2023-02-24T15:22:30.765Z,28.25
2023-02-24T15:25:21.320Z,28.51
2023-02-24T15:28:03.396Z,28.89
2023-02-24T15:30:39.247Z,28.32
2023-02-24T15:33:15.149Z,27.91
2023-02-24T15:35:54.129Z,28.87
2023-02-24T15:38:35.208Z,28.55
2023-02-24T15:41:04.604Z,28.21
2023-02-24T15:43:52.856Z,28.65
2023-02-24T15:46:35.652Z,28.17
2023-02-24T15:49:04.753Z,28.18
2023-02-24T15:51:47.030Z,28.39
2023-02-24T15:54:29.722Z,28.82
2023-02-24T15:56:59.167Z,27.95
2023-02-24T15:59:27.499Z,27.52
2023-02-24T16:02:01.072Z,27.05
2023-02-24T16:04:29.626Z,27.63
2023-02-24T16:06:57.792Z,27.97
2023-02-24T16:09:37.735Z,27.51
2023-02-24T16:12:12.432Z,27.57
2023-02-24T16:14:44.725Z,27.72
2023-02-24T16:17:35.534Z,26.99
2023-02-24T16:20:09.321Z,27.40
2023-02-24T16:22:37.480Z,28.06
2023-02-24T16:25:07.038Z,27.19
2023-02-24T16:27:35.916Z,27.00
2023-02-24T16:30:04.927Z,26.45
2023-02-24T16:32:33.196Z,26.48
2023-02-24T16:35:01.628Z,27.63
2023-02-24T16:37:30.063Z,27.06
2023-02-24T16:39:59.312Z,27.73
2023-02-24T16:42:27.895Z,27.75
2023-02-24T16:44:56.143Z,27.39
2023-02-24T16:47:24.234Z,28.53
2023-02-24T16:49:56.257Z,27.94
2023-02-24T16:52:25.102Z,27.73
2023-02-24T16:54:53.340Z,27.83
2023-02-24T16:57:25.883Z,27.57
2023-02-24T16:59:54.883Z,27.55
2023-02-24T17:02:24.008Z,28.40
2023-02-24T17:04:52.749Z,27.99
2023-02-24T17:07:21.465Z,28.05
2023-02-24T17:09:50.975Z,27.51
2023-02-24T17:12:21.799Z,27.81
2023-02-24T17:14:51.794Z,28.25
2023-02-24T17:17:21.937Z,27.90
2023-02-24T17:19:51.747Z,27.66
2023-02-24T17:22:20.431Z,27.08
2023-02-24T17:24:48.469Z,27.67
2023-02-24T17:27:16.595Z,27.90
2023-02-24T17:29:44.878Z,27.60
2023-02-24T17:32:13.084Z,27.71
2023-02-24T17:34:42.532Z,27.43
2023-02-24T17:37:11.099Z,27.38
2023-02-24T17:39:39.037Z,27.81
2023-02-24T17:42:07.251Z,27.50
2023-02-24T17:44:35.338Z,27.96
2023-02-24T17:47:03.890Z,28.35
2023-02-24T17:49:32.611Z,28.42
2023-02-24T17:52:00.589Z,28.97
2023-02-24T17:54:28.876Z,28.14
2023-02-24T17:56:56.901Z,27.89
2023-02-24T17:59:25.019Z,28.87
2023-02-24T18:01:55.017Z,29.37
2023-02-24T18:04:23.368Z,29.14
2023-02-24T18:06:51.453Z,28.90
2023-02-24T18:09:20.119Z,28.51
2023-02-24T18:11:48.431Z,28.91
2023-02-24T18:14:20.819Z,29.51
2023-02-24T18:16:49.348Z,29.70
2023-02-24T18:19:17.934Z,29.84
2023-02-24T18:21:47.551Z,30.13
2023-02-24T18:24:15.645Z,30.25
2023-02-24T18:26:43.746Z,30.29
2023-02-24T18:29:14.098Z,30.64
2023-02-24T18:31:42.649Z,31.57
2023-02-24T18:34:10.995Z,31.91
2023-02-24T18:36:39.320Z,31.54
2023-02-24T18:39:09.079Z,32.79
2023-02-24T18:41:37.623Z,32.23
2023-02-24T18:44:05.741Z,32.62
2023-02-24T18:46:34.010Z,31.98
2023-02-24T18:49:03.699Z,32.10
2023-02-24T18:51:32.693Z,32.08
2023-02-24T18:54:01.353Z,32.44
2023-02-24T18:56:31.229Z,32.58
2023-02-24T18:59:04.802Z,32.95
2023-02-24T19:01:38.672Z,32.00
2023-02-24T19:04:08.273Z,31.51
2023-02-24T19:06:36.392Z,31.87
2023-02-24T19:09:10.536Z,31.91
2023-02-24T19:11:39.590Z,32.70
2023-02-24T19:14:10.985Z,32.33
2023-02-24T19:16:40.254Z,31.76
2023-02-24T19:19:14.459Z,32.42
2023-02-24T19:21:45.512Z,31.30
2023-02-24T19:24:16.738Z,31.22
2023-02-24T19:26:47.559Z,31.70
2023-02-24T19:29:17.309Z,32.08
2023-02-24T19:31:45.863Z,32.55
2023-02-24T19:34:15.251Z,31.90
2023-02-24T19:36:43.812Z,31.65
2023-02-24T19:39:14.694Z,31.35
2023-02-24T19:41:42.784Z,30.69
2023-02-24T19:44:11.357Z,31.01
2023-02-24T19:46:40.342Z,31.91
2023-02-24T19:49:08.831Z,32.18
2023-02-24T19:51:39.715Z,32.35
2023-02-24T19:54:07.955Z,32.39
2023-02-24T19:56:36.821Z,33.09
2023-02-24T19:59:08.075Z,33.43
2023-02-24T20:01:38.502Z,32.83
2023-02-24T20:04:07.189Z,33.15
2023-02-24T20:06:39.862Z,33.23
2023-02-24T20:09:09.601Z,33.14
2023-02-24T20:11:38.626Z,33.50
2023-02-24T20:14:08.679Z,32.77
2023-02-24T20:16:37.654Z,33.39
2023-02-24T20:19:12.512Z,33.07
2023-02-24T20:21:42.332Z,32.81
2023-02-24T20:24:13.881Z,32.70
2023-02-24T20:26:46.292Z,33.23
2023-02-24T20:29:15.561Z,32.93
2023-02-24T20:31:46.640Z,32.82
2023-02-24T20:34:16.786Z,32.11
2023-02-24T20:36:45.835Z,32.37
2023-02-24T20:39:15.355Z,32.68
2023-02-24T20:41:43.872Z,32.62
2023-02-24T20:44:15.444Z,33.18
2023-02-24T20:46:43.521Z,32.70
2023-02-24T20:49:14.779Z,31.74
2023-02-24T20:51:42.982Z,32.51
2023-02-24T20:54:11.819Z,31.84
2023-02-24T20:56:42.431Z,31.95
2023-02-24T20:59:18.984Z,32.20
2023-02-24T21:01:48.649Z,32.46
2023-02-24T21:04:18.661Z,32.77
2023-02-24T21:06:48.158Z,33.00
2023-02-24T21:09:18.658Z,33.26
2023-02-24T21:11:48.273Z,32.94
2023-02-24T21:14:16.824Z,33.38
2023-02-24T21:16:46.225Z,32.65
2023-02-24T21:19:17.831Z,32.21
2023-02-24T21:21:46.316Z,32.03
2023-02-24T21:24:16.174Z,32.85
2023-02-24T21:26:44.293Z,33.18
2023-02-24T21:29:12.360Z,32.41
2023-02-24T21:31:40.625Z,32.03
2023-02-24T21:34:12.081Z,32.57
2023-02-24T21:36:40.479Z,33.40
2023-02-24T21:39:09.353Z,32.77
2023-02-24T21:41:37.438Z,33.58
2023-02-24T21:44:05.440Z,33.48
2023-02-24T21:46:34.498Z,33.09
2023-02-24T21:49:03.087Z,32.77
2023-02-24T21:51:33.808Z,32.77
2023-02-24T21:54:03.123Z,31.78
2023-02-24T21:56:31.405Z,31.74
2023-02-24T21:59:03.158Z,32.21
2023-02-24T22:01:36.367Z,32.13
2023-02-24T22:04:06.497Z,32.83
2023-02-24T22:06:36.730Z,33.23
2023-02-24T22:09:05.839Z,32.53
2023-02-24T22:11:38.010Z,32.80
2023-02-24T22:14:10.428Z,32.50
2023-02-24T22:16:39.843Z,31.81
2023-02-24T22:19:08.069Z,32.26
2023-02-24T22:21:36.090Z,33.92
2023-02-24T22:24:05.248Z,34.91
2023-02-24T22:26:33.557Z,34.89
2023-02-24T22:29:02.419Z,35.15
2023-02-24T22:31:32.315Z,34.97
2023-02-24T22:34:00.897Z,34.55
2023-02-24T22:36:31.066Z,35.61
2023-02-24T22:39:00.117Z,37.19
2023-02-24T22:41:32.495Z,36.86
2023-02-24T22:44:01.348Z,36.51
2023-02-24T22:46:32.429Z,36.43
2023-02-24T22:49:00.793Z,35.58
2023-02-24T22:51:29.259Z,35.73
2023-02-24T22:53:58.207Z,34.23
2023-02-24T22:56:27.398Z,35.70
2023-02-24T22:58:55.446Z,35.11
2023-02-24T23:01:35.092Z,35.07
2023-02-24T23:04:07.323Z,35.95
2023-02-24T23:06:37.268Z,36.28
2023-02-24T23:09:06.122Z,35.20
2023-02-24T23:11:38.675Z,35.35
2023-02-24T23:14:10.112Z,34.46
2023-02-24T23:16:38.888Z,34.06
2023-02-24T23:19:10.750Z,34.82
2023-02-24T23:21:40.683Z,34.47
2023-02-24T23:24:10.989Z,33.57
2023-02-24T23:26:45.965Z,33.95
2023-02-24T23:29:15.635Z,34.95
2023-02-24T23:31:45.005Z,34.40
2023-02-24T23:34:14.808Z,33.53
2023-02-24T23:36:44.463Z,33.69
2023-02-24T23:39:23.097Z,34.17
2023-02-24T23:41:56.820Z,34.19
2023-02-24T23:44:25.613Z,34.61
2023-02-24T23:46:54.389Z,35.06
2023-02-24T23:49:24.068Z,33.65
2023-02-24T23:51:53.475Z,33.62
2023-02-24T23:54:21.468Z,34.37
2023-02-24T23:56:50.026Z,34.57
2023-02-24T23:59:21.571Z,35.01
